LERS

Reus Airport

Airport
ICAO code
LERS
IATA Code
REU
Summary
ICAO Region
EUR
ICAO Territory
Location

Reus, Catalonia

Serving
Reus
Elevation
233 ft
Coordinates
41° 8' 51" N , 1° 10' 2" E
Metar
LERS 222300Z AUTO 01005KT CAVOK 23/15 Q1019

Runways

Designator Length Width Surface Rops
12/30 950 35 GRE No/No
7/25 2455 45 ASP Yes/Yes

Airport map

Aerial View

SKYbrary Partners:

Safety knowledge contributed by: